createdAt,value
2022-08-27T00:01:56.175Z,79.38
2022-08-27T00:04:23.939Z,79.79
2022-08-27T00:06:51.905Z,79.44
2022-08-27T00:09:26.542Z,79.57
2022-08-27T00:11:55.734Z,79.21
2022-08-27T00:14:24.680Z,79.56
2022-08-27T00:16:52.541Z,79.55
2022-08-27T00:19:20.145Z,79.78
2022-08-27T00:21:48.388Z,79.89
2022-08-27T00:24:15.978Z,79.92
2022-08-27T00:26:43.832Z,79.95
2022-08-27T00:29:11.511Z,79.90
2022-08-27T00:31:39.778Z,80.32
2022-08-27T00:34:07.592Z,80.29
2022-08-27T00:36:36.001Z,80.29
2022-08-27T00:39:04.903Z,80.10
2022-08-27T00:41:33.790Z,80.45
2022-08-27T00:44:02.238Z,80.98
2022-08-27T00:46:42.625Z,80.37
2022-08-27T00:49:16.882Z,80.33
2022-08-27T00:51:51.126Z,80.04
2022-08-27T00:54:19.467Z,80.14
2022-08-27T00:56:51.366Z,80.21
2022-08-27T00:59:23.614Z,80.36
2022-08-27T01:02:10.526Z,80.28
2022-08-27T01:04:40.639Z,80.09
2022-08-27T01:07:09.722Z,80.22
2022-08-27T01:09:38.773Z,80.36
2022-08-27T01:12:07.307Z,80.38
2022-08-27T01:14:35.699Z,80.34
2022-08-27T01:17:04.139Z,80.71
2022-08-27T01:19:54.774Z,80.57
2022-08-27T01:22:44.200Z,80.52
2022-08-27T01:25:15.678Z,80.68
2022-08-27T01:27:44.733Z,80.73
2022-08-27T01:30:15.651Z,80.76
2022-08-27T01:32:44.330Z,80.94
2022-08-27T01:35:14.519Z,80.94
2022-08-27T01:37:44.641Z,80.97
2022-08-27T01:40:13.857Z,80.92
2022-08-27T01:42:49.370Z,80.90
2022-08-27T01:45:30.037Z,80.65
2022-08-27T01:47:58.842Z,80.78
2022-08-27T01:50:31.928Z,80.90
2022-08-27T01:53:07.857Z,80.85
2022-08-27T01:55:35.722Z,80.88
2022-08-27T01:58:04.759Z,80.79
2022-08-27T02:00:36.663Z,81.01
2022-08-27T02:03:06.539Z,80.77
2022-08-27T02:05:44.539Z,80.72
2022-08-27T02:08:16.848Z,80.90
2022-08-27T02:10:46.438Z,80.87
2022-08-27T02:13:14.977Z,81.02
2022-08-27T02:15:43.651Z,80.84
2022-08-27T02:18:12.310Z,81.26
2022-08-27T02:20:40.001Z,81.27
2022-08-27T02:23:07.925Z,81.40
2022-08-27T02:25:36.023Z,81.28
2022-08-27T02:28:05.959Z,81.32
2022-08-27T02:30:35.261Z,81.17
2022-08-27T02:33:04.661Z,81.49
2022-08-27T02:35:34.673Z,81.39
2022-08-27T02:38:02.556Z,81.21
2022-08-27T02:40:30.221Z,81.49
2022-08-27T02:42:58.239Z,81.68
2022-08-27T02:45:25.907Z,81.43
2022-08-27T02:47:54.143Z,81.39
2022-08-27T02:50:22.043Z,81.55
2022-08-27T02:52:55.045Z,81.34
2022-08-27T02:55:23.159Z,81.36
2022-08-27T02:57:50.754Z,81.71
2022-08-27T03:00:21.094Z,81.71
2022-08-27T03:02:49.519Z,81.77
2022-08-27T03:05:18.271Z,82.14
2022-08-27T03:07:45.901Z,81.56
2022-08-27T03:10:16.119Z,81.52
2022-08-27T03:12:44.423Z,81.98
2022-08-27T03:15:17.878Z,81.69
2022-08-27T03:18:04.599Z,82.01
2022-08-27T03:20:33.392Z,81.67
2022-08-27T03:23:01.258Z,81.86
2022-08-27T03:25:29.068Z,81.67
2022-08-27T03:27:56.709Z,81.82
2022-08-27T03:30:25.017Z,82.08
2022-08-27T03:32:53.060Z,82.18
2022-08-27T03:35:22.013Z,82.28
2022-08-27T03:37:50.539Z,81.93
2022-08-27T03:40:19.933Z,82.09
2022-08-27T03:42:47.554Z,81.98
2022-08-27T03:45:15.576Z,82.06
2022-08-27T03:47:43.285Z,82.30
2022-08-27T03:50:12.124Z,82.10
2022-08-27T03:52:39.796Z,82.64
2022-08-27T03:55:08.999Z,82.48
2022-08-27T03:57:37.377Z,81.91
2022-08-27T04:00:09.438Z,81.91
2022-08-27T04:02:41.736Z,82.55
2022-08-27T04:05:12.481Z,82.17
2022-08-27T04:07:41.798Z,82.37
2022-08-27T04:10:11.384Z,82.66
2022-08-27T04:12:39.170Z,82.82
2022-08-27T04:15:09.473Z,82.04
2022-08-27T04:17:37.618Z,81.98
2022-08-27T04:20:33.915Z,82.79
2022-08-27T04:22:54.648Z,82.11
2022-08-27T04:25:22.178Z,82.24
2022-08-27T04:27:49.792Z,82.00
2022-08-27T04:30:19.424Z,82.40
2022-08-27T04:32:47.132Z,82.41
2022-08-27T04:35:14.887Z,82.07
2022-08-27T04:37:42.626Z,82.00
2022-08-27T04:40:11.078Z,83.03
2022-08-27T04:42:38.680Z,82.27
2022-08-27T04:45:06.787Z,82.11
2022-08-27T04:47:35.658Z,82.63
2022-08-27T04:50:05.159Z,82.63
2022-08-27T04:52:33.910Z,83.11
2022-08-27T04:55:09.323Z,82.59
2022-08-27T04:57:38.162Z,83.23
2022-08-27T05:00:08.226Z,82.94
2022-08-27T05:02:35.830Z,83.59
2022-08-27T05:05:03.473Z,83.62
2022-08-27T05:07:31.161Z,83.30
2022-08-27T05:09:58.715Z,83.43
2022-08-27T05:12:26.364Z,83.21
2022-08-27T05:14:54.854Z,83.68
2022-08-27T05:17:22.488Z,83.36
2022-08-27T05:19:50.066Z,83.56
2022-08-27T05:22:17.674Z,83.06
2022-08-27T05:24:50.240Z,83.34
2022-08-27T05:27:18.035Z,83.14
2022-08-27T05:29:45.608Z,83.77
2022-08-27T05:32:13.602Z,82.96
2022-08-27T05:34:41.181Z,82.94
2022-08-27T05:37:08.739Z,82.97
2022-08-27T05:39:36.564Z,82.80
2022-08-27T05:42:04.354Z,82.74
2022-08-27T05:44:47.312Z,83.70
2022-08-27T05:47:15.045Z,83.14
2022-08-27T05:49:42.700Z,82.83
2022-08-27T05:52:13.625Z,82.73
2022-08-27T05:54:41.766Z,82.78
2022-08-27T05:57:09.437Z,82.94
2022-08-27T05:59:55.772Z,82.96
2022-08-27T06:02:23.461Z,83.28
2022-08-27T06:04:51.445Z,82.58
2022-08-27T06:07:19.355Z,82.97
2022-08-27T06:09:47.081Z,82.92
2022-08-27T06:12:14.716Z,82.81
2022-08-27T06:14:42.402Z,82.37
2022-08-27T06:17:10.174Z,82.44
2022-08-27T06:19:37.793Z,82.58
2022-08-27T06:22:10.591Z,82.59
2022-08-27T06:24:40.739Z,81.48
2022-08-27T06:27:14.165Z,81.74
2022-08-27T06:29:42.568Z,81.04
2022-08-27T06:32:11.325Z,80.78
2022-08-27T06:34:39.700Z,81.19
2022-08-27T06:37:07.881Z,80.94
2022-08-27T06:39:37.562Z,81.12
2022-08-27T06:42:06.608Z,81.08
2022-08-27T06:44:34.487Z,81.72
2022-08-27T06:47:03.865Z,81.37
2022-08-27T06:49:32.193Z,80.67
2022-08-27T06:51:59.777Z,80.09
2022-08-27T06:54:27.389Z,79.08
2022-08-27T06:56:59.213Z,77.83
2022-08-27T06:59:27.816Z,75.99
2022-08-27T07:01:55.489Z,73.81
2022-08-27T07:04:32.286Z,71.39
2022-08-27T07:07:02.414Z,69.32
2022-08-27T07:09:32.707Z,67.13
2022-08-27T07:12:01.698Z,64.95
2022-08-27T07:14:34.281Z,63.42
2022-08-27T07:17:04.071Z,61.67
2022-08-27T07:19:32.384Z,59.97
2022-08-27T07:22:00.657Z,58.83
2022-08-27T07:24:28.272Z,57.62
2022-08-27T07:26:55.874Z,56.13
2022-08-27T07:29:23.566Z,54.61
2022-08-27T07:31:51.226Z,53.97
2022-08-27T07:34:18.874Z,52.97
2022-08-27T07:36:46.492Z,52.06
2022-08-27T07:39:16.827Z,51.14
2022-08-27T07:42:02.983Z,51.52
2022-08-27T07:44:34.364Z,51.90
2022-08-27T07:47:02.778Z,51.40
2022-08-27T07:49:31.666Z,51.00
2022-08-27T07:51:59.406Z,49.79
2022-08-27T07:54:27.354Z,48.48
2022-08-27T07:56:56.179Z,47.20
2022-08-27T07:59:25.182Z,46.13
2022-08-27T08:01:56.369Z,45.12
2022-08-27T08:04:24.755Z,44.53
2022-08-27T08:06:52.779Z,43.97
2022-08-27T08:09:23.898Z,42.88
2022-08-27T08:11:52.824Z,42.16
2022-08-27T08:14:20.783Z,41.68
2022-08-27T08:16:48.697Z,40.86
2022-08-27T08:19:16.736Z,40.50
2022-08-27T08:21:44.394Z,39.87
2022-08-27T08:24:12.052Z,39.45
2022-08-27T08:26:42.220Z,38.81
2022-08-27T08:29:13.736Z,38.35
2022-08-27T08:31:50.278Z,37.65
2022-08-27T08:34:19.945Z,37.17
2022-08-27T08:36:53.994Z,35.83
2022-08-27T08:39:24.148Z,35.50
2022-08-27T08:41:57.969Z,34.53
2022-08-27T08:44:36.730Z,34.13
2022-08-27T08:47:15.777Z,33.41
2022-08-27T08:50:11.102Z,34.11
2022-08-27T08:52:52.394Z,33.02
2022-08-27T08:55:45.889Z,32.23
2022-08-27T08:58:30.094Z,32.41
2022-08-27T09:01:01.012Z,32.13
2022-08-27T09:03:30.382Z,31.64
2022-08-27T09:06:08.379Z,30.75
2022-08-27T09:08:43.085Z,30.37
2022-08-27T09:11:32.450Z,29.89
2022-08-27T09:14:04.806Z,30.41
2022-08-27T09:16:32.828Z,29.90
2022-08-27T09:19:02.918Z,28.74
2022-08-27T09:21:55.642Z,28.99
2022-08-27T09:24:50.503Z,27.79
2022-08-27T09:27:26.655Z,27.79
2022-08-27T09:30:16.224Z,28.60
2022-08-27T09:33:03.537Z,28.37
2022-08-27T09:35:46.817Z,28.04
2022-08-27T09:38:37.905Z,28.45
2022-08-27T09:41:18.903Z,28.50
2022-08-27T09:43:58.489Z,28.81
2022-08-27T09:49:25.382Z,28.37
2022-08-27T09:52:00.821Z,28.26
2022-08-27T09:54:47.432Z,27.76
2022-08-27T09:57:52.535Z,27.92
2022-08-27T10:00:33.569Z,27.88
2022-08-27T10:03:10.418Z,28.73
2022-08-27T10:05:51.200Z,28.00
2022-08-27T10:08:46.562Z,27.11
2022-08-27T10:11:36.284Z,27.21
2022-08-27T10:14:31.378Z,27.13
2022-08-27T10:17:25.649Z,27.27
2022-08-27T10:20:30.675Z,27.19
2022-08-27T10:23:28.844Z,28.06
2022-08-27T10:26:05.667Z,28.07
2022-08-27T10:29:05.515Z,27.97
2022-08-27T10:32:18.653Z,29.35
2022-08-27T10:35:05.401Z,29.87
2022-08-27T10:37:52.327Z,29.21
2022-08-27T10:40:34.773Z,28.88
2022-08-27T10:43:24.617Z,28.89
2022-08-27T10:46:01.758Z,28.79
2022-08-27T10:48:41.512Z,27.61
2022-08-27T10:51:18.347Z,26.62
2022-08-27T10:53:54.790Z,27.27
2022-08-27T10:56:46.739Z,26.23
2022-08-27T10:59:21.645Z,25.54
2022-08-27T11:02:06.696Z,24.04
2022-08-27T11:04:48.569Z,24.51
2022-08-27T11:07:27.389Z,23.92
2022-08-27T11:10:00.153Z,23.66
2022-08-27T11:12:37.723Z,22.99
2022-08-27T11:15:13.043Z,22.91
2022-08-27T11:18:06.572Z,23.13
2022-08-27T11:20:48.517Z,22.33
2022-08-27T11:23:20.281Z,22.16
2022-08-27T11:26:04.183Z,21.41
2022-08-27T11:28:41.901Z,21.00
2022-08-27T11:31:36.257Z,21.41
2022-08-27T11:37:27.265Z,21.16
2022-08-27T11:39:57.925Z,21.01
2022-08-27T11:42:36.268Z,20.66
2022-08-27T11:45:15.548Z,21.32
2022-08-27T11:47:56.338Z,21.10
2022-08-27T11:50:25.785Z,21.27
2022-08-27T11:52:55.544Z,21.57
2022-08-27T11:55:28.411Z,21.28
2022-08-27T11:58:17.817Z,21.70
2022-08-27T12:00:46.940Z,21.11
2022-08-27T12:03:20.458Z,21.89
2022-08-27T12:06:05.502Z,21.44
2022-08-27T12:08:37.795Z,21.12
2022-08-27T12:11:53.449Z,20.45
2022-08-27T12:14:42.791Z,20.91
2022-08-27T12:17:42.450Z,20.92
2022-08-27T12:20:38.405Z,21.14
2022-08-27T12:23:44.198Z,21.17
2022-08-27T12:26:26.648Z,20.85
2022-08-27T12:29:17.712Z,20.94
2022-08-27T12:31:48.909Z,21.16
2022-08-27T12:34:23.195Z,20.85
2022-08-27T12:36:53.429Z,20.90
2022-08-27T12:39:28.973Z,21.17
2022-08-27T12:41:56.838Z,21.02
2022-08-27T12:44:33.574Z,20.93
2022-08-27T12:47:06.318Z,21.46
2022-08-27T12:49:44.166Z,22.07
2022-08-27T12:52:48.881Z,22.09
2022-08-27T12:55:34.946Z,22.66
2022-08-27T12:58:15.353Z,22.78
2022-08-27T13:01:10.329Z,22.95
2022-08-27T13:03:50.961Z,22.91
2022-08-27T13:06:32.290Z,24.11
2022-08-27T13:09:03.812Z,23.65
2022-08-27T13:11:36.013Z,24.16
2022-08-27T13:14:13.864Z,24.87
2022-08-27T13:16:58.408Z,24.70
2022-08-27T13:19:34.663Z,25.55
2022-08-27T13:22:05.310Z,25.50
2022-08-27T13:24:36.000Z,25.82
2022-08-27T13:27:06.325Z,25.77
2022-08-27T13:29:34.834Z,25.81
2022-08-27T13:32:03.393Z,26.31
2022-08-27T13:34:36.116Z,27.32
2022-08-27T13:37:06.818Z,27.25
2022-08-27T13:39:37.032Z,27.31
2022-08-27T13:42:08.486Z,28.05
2022-08-27T13:44:41.654Z,29.08
2022-08-27T13:47:25.985Z,29.48
2022-08-27T13:50:21.692Z,29.54
2022-08-27T13:53:11.822Z,30.80
2022-08-27T13:55:45.783Z,30.44
2022-08-27T14:01:30.611Z,31.16
2022-08-27T14:04:09.660Z,31.63
2022-08-27T14:06:46.049Z,32.66
2022-08-27T14:09:23.352Z,32.51
2022-08-27T14:12:08.723Z,32.93
2022-08-27T14:14:38.924Z,33.31
2022-08-27T14:17:20.079Z,33.24
2022-08-27T14:19:50.219Z,33.77
2022-08-27T14:22:18.876Z,33.85
2022-08-27T14:24:46.897Z,33.81
2022-08-27T14:27:16.224Z,34.00
2022-08-27T14:29:43.947Z,34.17
2022-08-27T14:32:11.572Z,33.91
2022-08-27T14:34:39.215Z,34.54
2022-08-27T14:37:07.501Z,34.78
2022-08-27T14:39:35.306Z,35.89
2022-08-27T14:42:02.921Z,35.65
2022-08-27T14:44:33.127Z,36.02
2022-08-27T14:47:01.550Z,36.55
2022-08-27T14:49:35.006Z,36.36
2022-08-27T14:52:05.575Z,35.91
2022-08-27T14:54:33.846Z,36.01
2022-08-27T14:57:03.110Z,35.82
2022-08-27T14:59:32.026Z,35.77
2022-08-27T15:02:01.976Z,35.56
2022-08-27T15:04:30.898Z,36.11
2022-08-27T15:07:00.283Z,36.37
2022-08-27T15:09:29.746Z,36.49
2022-08-27T15:11:58.423Z,37.15
2022-08-27T15:14:33.287Z,36.96
2022-08-27T15:17:01.137Z,36.93
2022-08-27T15:19:30.115Z,36.38
2022-08-27T15:22:05.567Z,36.35
2022-08-27T15:24:43.344Z,36.09
2022-08-27T15:27:11.036Z,36.17
2022-08-27T15:29:40.433Z,36.23
2022-08-27T15:32:18.484Z,36.80
2022-08-27T15:34:48.524Z,36.66
2022-08-27T15:37:16.569Z,36.31
2022-08-27T15:39:44.236Z,36.41
2022-08-27T15:42:12.168Z,36.02
2022-08-27T15:44:48.783Z,35.19
2022-08-27T15:47:19.525Z,35.60
2022-08-27T15:49:47.590Z,35.06
2022-08-27T15:52:17.428Z,35.96
2022-08-27T15:54:46.660Z,35.93
2022-08-27T15:57:14.638Z,36.28
2022-08-27T15:59:42.424Z,36.70
2022-08-27T16:02:15.680Z,37.02
2022-08-27T16:04:44.689Z,36.93
2022-08-27T16:07:20.142Z,37.17
2022-08-27T16:09:48.921Z,37.87
2022-08-27T16:12:26.704Z,37.65
2022-08-27T16:14:56.341Z,37.76
2022-08-27T16:17:26.582Z,38.26
2022-08-27T16:19:54.494Z,38.31
2022-08-27T16:22:22.042Z,38.64
2022-08-27T16:24:49.799Z,38.89
2022-08-27T16:27:17.295Z,38.71
2022-08-27T16:29:44.982Z,39.36
2022-08-27T16:32:17.339Z,39.27
2022-08-27T16:34:55.749Z,38.02
2022-08-27T16:37:24.896Z,37.70
2022-08-27T16:39:53.221Z,37.47
2022-08-27T16:42:21.353Z,37.59
2022-08-27T16:44:49.244Z,36.79
2022-08-27T16:47:17.448Z,37.25
2022-08-27T16:50:03.757Z,37.21
2022-08-27T16:52:31.494Z,37.17
2022-08-27T16:55:00.233Z,37.93
2022-08-27T16:57:27.840Z,37.41
2022-08-27T16:59:55.958Z,38.15
2022-08-27T17:02:35.087Z,38.49
2022-08-27T17:05:34.118Z,38.88
2022-08-27T17:07:50.543Z,39.30
2022-08-27T17:10:19.348Z,39.33
2022-08-27T17:12:48.068Z,39.87
2022-08-27T17:18:22.628Z,40.27
2022-08-27T17:20:52.270Z,40.92
2022-08-27T17:23:28.260Z,40.74
2022-08-27T17:25:55.902Z,40.99
2022-08-27T17:28:23.417Z,40.54
2022-08-27T17:30:51.228Z,40.87
2022-08-27T17:33:28.788Z,40.82
2022-08-27T17:35:56.753Z,41.27
2022-08-27T17:38:24.732Z,41.48
2022-08-27T17:40:53.931Z,41.79
2022-08-27T17:43:22.528Z,41.57
2022-08-27T17:45:50.324Z,41.77
2022-08-27T17:48:18.075Z,42.07
2022-08-27T17:50:47.689Z,42.29
2022-08-27T17:53:15.310Z,42.55
2022-08-27T17:55:43.044Z,42.91
2022-08-27T17:58:10.706Z,42.57
2022-08-27T18:00:39.368Z,43.02
2022-08-27T18:03:18.820Z,43.17
2022-08-27T18:05:48.290Z,43.14
2022-08-27T18:08:16.051Z,43.42
2022-08-27T18:10:44.871Z,43.50
2022-08-27T18:13:14.881Z,43.88
2022-08-27T18:15:42.870Z,44.40
2022-08-27T18:18:11.741Z,44.46
2022-08-27T18:20:42.490Z,44.70
2022-08-27T18:23:10.433Z,45.12
2022-08-27T18:25:39.504Z,45.75
2022-08-27T18:28:09.923Z,45.79
2022-08-27T18:30:39.762Z,46.32
2022-08-27T18:33:08.342Z,46.54
2022-08-27T18:35:36.986Z,46.88
2022-08-27T18:38:06.362Z,47.33
2022-08-27T18:40:41.694Z,47.82
2022-08-27T18:43:09.436Z,48.01
2022-08-27T18:45:37.860Z,48.77
2022-08-27T18:48:14.436Z,48.50
2022-08-27T18:50:46.411Z,48.97
2022-08-27T18:53:17.668Z,49.07
2022-08-27T18:55:45.351Z,49.03
2022-08-27T18:58:13.461Z,49.73
2022-08-27T19:00:44.784Z,50.30
2022-08-27T19:03:17.826Z,50.75
2022-08-27T19:05:45.671Z,50.93
2022-08-27T19:08:14.313Z,50.98
2022-08-27T19:10:41.886Z,51.11
2022-08-27T19:13:09.759Z,51.51
2022-08-27T19:15:37.761Z,51.63
2022-08-27T19:18:05.502Z,51.54
2022-08-27T19:20:33.222Z,51.93
2022-08-27T19:23:00.900Z,52.38
2022-08-27T19:25:29.384Z,52.41
2022-08-27T19:27:57.442Z,52.61
2022-08-27T19:30:25.422Z,52.14
2022-08-27T19:32:54.680Z,52.52
2022-08-27T19:35:22.736Z,53.01
2022-08-27T19:37:52.981Z,53.12
2022-08-27T19:40:22.995Z,52.98
2022-08-27T19:42:51.141Z,53.43
2022-08-27T19:45:23.295Z,53.56
2022-08-27T19:47:52.968Z,53.57
2022-08-27T19:50:21.588Z,53.90
2022-08-27T19:52:50.062Z,53.78
2022-08-27T19:55:18.016Z,54.14
2022-08-27T19:57:46.362Z,54.64
2022-08-27T20:03:19.582Z,54.83
2022-08-27T20:05:50.311Z,55.30
2022-08-27T20:08:19.174Z,55.76
2022-08-27T20:10:47.549Z,55.85
2022-08-27T20:13:15.309Z,56.13
2022-08-27T20:15:42.918Z,56.28
2022-08-27T20:18:13.809Z,56.42
2022-08-27T20:20:41.494Z,56.67
2022-08-27T20:23:09.168Z,56.92
2022-08-27T20:25:37.621Z,56.83
2022-08-27T20:28:35.484Z,56.88
2022-08-27T20:30:58.369Z,57.20
2022-08-27T20:33:27.155Z,57.02
2022-08-27T20:35:56.722Z,57.51
2022-08-27T20:38:24.692Z,57.37
2022-08-27T20:40:52.300Z,57.52
2022-08-27T20:43:19.893Z,57.79
2022-08-27T20:45:47.609Z,58.03
2022-08-27T20:48:15.272Z,58.57
2022-08-27T20:50:43.602Z,58.17
2022-08-27T20:53:11.183Z,58.49
2022-08-27T20:55:39.124Z,58.56
2022-08-27T20:58:25.316Z,58.43
2022-08-27T21:00:56.842Z,58.45
2022-08-27T21:03:24.881Z,58.59
2022-08-27T21:05:52.609Z,58.71
2022-08-27T21:08:21.871Z,58.74
2022-08-27T21:10:52.853Z,58.94
2022-08-27T21:13:21.459Z,58.90
2022-08-27T21:15:50.227Z,58.89
2022-08-27T21:18:22.404Z,58.74
2022-08-27T21:20:59.340Z,58.84
2022-08-27T21:23:28.134Z,59.23
2022-08-27T21:26:04.463Z,59.49
2022-08-27T21:28:32.245Z,59.65
2022-08-27T21:30:59.854Z,59.64
2022-08-27T21:33:27.480Z,59.85
2022-08-27T21:35:55.352Z,60.10
2022-08-27T21:38:22.946Z,60.35
2022-08-27T21:40:50.459Z,60.23
2022-08-27T21:43:18.215Z,60.62
2022-08-27T21:45:46.071Z,60.62
2022-08-27T21:48:14.116Z,60.91
2022-08-27T21:50:41.797Z,61.06
2022-08-27T21:53:10.611Z,61.11
2022-08-27T21:55:38.247Z,61.26
2022-08-27T21:58:06.175Z,61.11
2022-08-27T22:00:40.663Z,61.27
2022-08-27T22:03:11.073Z,61.17
2022-08-27T22:05:41.390Z,61.74
2022-08-27T22:08:11.514Z,61.74
2022-08-27T22:10:41.731Z,61.75
2022-08-27T22:13:09.720Z,61.86
2022-08-27T22:15:38.138Z,61.77
2022-08-27T22:18:07.083Z,61.92
2022-08-27T22:20:35.348Z,61.92
2022-08-27T22:23:05.280Z,62.19
2022-08-27T22:25:33.495Z,62.29
2022-08-27T22:28:01.166Z,62.36
2022-08-27T22:30:28.871Z,62.69
2022-08-27T22:32:57.092Z,62.69
2022-08-27T22:35:24.750Z,62.77
2022-08-27T22:37:55.698Z,63.20
2022-08-27T22:40:25.032Z,63.40
2022-08-27T22:42:54.017Z,63.50
2022-08-27T22:45:21.670Z,63.66
2022-08-27T22:47:49.315Z,63.62
2022-08-27T22:50:17.470Z,63.75
2022-08-27T22:52:45.836Z,63.74
2022-08-27T22:55:16.385Z,64.18
2022-08-27T22:57:43.950Z,64.18
2022-08-27T23:00:16.463Z,64.06
2022-08-27T23:02:44.052Z,64.53
2022-08-27T23:05:13.229Z,64.58
2022-08-27T23:07:41.418Z,64.67
2022-08-27T23:10:11.494Z,64.56
2022-08-27T23:12:39.199Z,64.74
2022-08-27T23:15:09.295Z,64.69
2022-08-27T23:17:37.217Z,64.82
2022-08-27T23:20:07.837Z,64.64
2022-08-27T23:22:36.478Z,64.89
2022-08-27T23:25:24.004Z,64.97
2022-08-27T23:27:51.719Z,65.00
2022-08-27T23:30:19.536Z,65.08
2022-08-27T23:32:50.212Z,65.13
2022-08-27T23:35:22.897Z,65.19
2022-08-27T23:37:51.438Z,65.35
2022-08-27T23:40:20.986Z,65.89
2022-08-27T23:42:50.396Z,65.74
2022-08-27T23:45:22.312Z,66.27
2022-08-27T23:47:50.038Z,66.36
2022-08-27T23:50:17.722Z,66.25
2022-08-27T23:52:45.396Z,66.40
2022-08-27T23:55:13.084Z,66.66
2022-08-27T23:57:41.146Z,66.58
